Time;durP1;ratioP1;P1;durP2;ratioP2;P2;SDS_P1;SDS_P2;PMS_P1;PMS_P2;Temp;Humidity;BMP_temperature;BMP_pressure;BME280_temperature;BME280_humidity;BME280_pressure;Samples;Min_cycle;Max_cycle;Signal;HPM_P1;HPM_P2
2022/01/22 00:02:07;;;;;;;10.03;3.85;;;;;;;-2.49;43.24;101024.95;1828403;78;26013;-63
2022/01/22 00:04:35;;;;;;;6.72;3.75;;;;;;;-2.50;43.42;101025.38;1828440;78;25696;-63
2022/01/22 00:07:06;;;;;;;6.75;3.22;;;;;;;-2.50;43.32;101022.75;1828421;78;27476;-63
2022/01/22 00:09:38;;;;;;;13.88;3.72;;;;;;;-2.49;43.29;101023.63;1828649;78;25889;-62
2022/01/22 00:12:06;;;;;;;7.03;3.67;;;;;;;-2.47;43.15;101014.77;1827591;78;25608;-63
2022/01/22 00:14:34;;;;;;;15.80;4.97;;;;;;;-2.50;43.16;101020.11;1828578;78;26111;-62
2022/01/22 00:17:02;;;;;;;11.33;3.95;;;;;;;-2.50;43.42;101017.48;1828511;78;25716;-62
2022/01/22 00:19:29;;;;;;;8.90;3.40;;;;;;;-2.50;43.46;101016.63;1828658;78;27496;-62
2022/01/22 00:21:56;;;;;;;10.20;4.12;;;;;;;-2.46;43.43;101017.81;1828319;78;25709;-63
2022/01/22 00:24:26;;;;;;;9.28;4.12;;;;;;;-2.45;43.47;101030.08;1822483;78;25724;-63
2022/01/22 00:26:53;;;;;;;11.78;4.75;;;;;;;-2.45;43.43;101027.44;1814997;79;26093;-63
2022/01/22 00:29:20;;;;;;;15.68;3.90;;;;;;;-2.44;43.31;101012.05;1798081;79;25703;-63
2022/01/22 00:31:49;;;;;;;7.53;3.95;;;;;;;-2.42;43.44;101014.62;1779282;80;27467;-64
2022/01/22 00:34:17;;;;;;;10.68;4.17;;;;;;;-2.39;43.30;101018.49;1802540;79;25728;-63
2022/01/22 00:36:48;;;;;;;15.85;4.65;;;;;;;-2.38;43.38;101013.63;1779106;80;25755;-63
2022/01/22 00:39:15;;;;;;;12.37;4.42;;;;;;;-2.34;43.37;101015.72;1803165;79;26881;-64
2022/01/22 00:41:42;;;;;;;10.88;4.53;;;;;;;-2.30;43.12;101016.02;1752305;80;25833;-63
2022/01/22 00:44:10;;;;;;;20.88;5.05;;;;;;;-2.26;43.06;101009.75;1744292;81;28195;-64
2022/01/22 00:46:37;;;;;;;13.65;5.28;;;;;;;-2.27;43.05;101008.87;1705620;84;25822;-63
2022/01/22 00:49:04;;;;;;;15.38;4.97;;;;;;;-2.26;43.13;101008.43;1739189;82;25761;-63
2022/01/22 00:51:31;;;;;;;16.70;4.22;;;;;;;-2.22;43.22;101012.24;1705750;84;26025;-62
2022/01/22 00:53:58;;;;;;;16.02;4.60;;;;;;;-2.18;43.27;101012.12;1739463;82;25789;-62
2022/01/22 00:56:25;;;;;;;8.33;3.33;;;;;;;-2.08;43.52;101005.65;1705680;84;28183;-63
2022/01/22 00:58:51;;;;;;;9.23;4.75;;;;;;;-2.06;43.15;101009.95;1738909;82;25803;-63
2022/01/22 01:01:18;;;;;;;13.58;4.90;;;;;;;-2.09;43.10;101011.39;1706850;83;25795;-62
2022/01/22 01:03:45;;;;;;;8.00;3.65;;;;;;;-2.07;43.16;101008.26;1690172;84;26098;-62
2022/01/22 01:06:12;;;;;;;14.13;4.58;;;;;;;-2.07;43.11;101006.94;1737438;82;25825;-63
2022/01/22 01:08:40;;;;;;;12.45;4.12;;;;;;;-2.11;43.03;101004.45;1705461;82;27602;-62
2022/01/22 01:11:09;;;;;;;10.08;4.28;;;;;;;-2.10;43.11;101003.08;1738984;82;25796;-63
2022/01/22 01:13:42;;;;;;;11.73;4.03;;;;;;;-2.07;43.22;100993.77;1705683;84;25768;-62
2022/01/22 01:16:22;;;;;;;7.20;3.42;;;;;;;-2.05;43.03;100994.55;1738373;82;26004;-62
2022/01/22 01:32:55;;;;;;;6.83;3.17;;;;;;;-1.84;43.17;100990.80;1734973;82;25722;-62
2022/01/22 01:35:08;;;;;;;10.18;4.30;;;;;;;-1.79;42.96;100984.91;1735172;82;27494;-63
2022/01/22 01:37:35;;;;;;;9.40;3.62;;;;;;;-1.70;42.98;100986.39;1751479;81;25812;-63
2022/01/22 01:40:05;;;;;;;8.40;4.53;;;;;;;-1.64;42.89;100984.84;1751369;81;25663;-63
2022/01/22 01:42:43;;;;;;;8.73;3.25;;;;;;;-1.57;42.72;100973.16;1787019;79;26028;-63
2022/01/22 01:45:09;;;;;;;11.25;3.72;;;;;;;-1.48;42.45;100972.00;1733008;81;25839;-63
2022/01/22 01:47:47;;;;;;;13.15;3.60;;;;;;;-1.45;42.21;100967.94;1718317;82;28129;-63
2022/01/22 01:50:13;;;;;;;7.65;3.08;;;;;;;-1.46;42.03;100969.29;1734348;81;25953;-64
2022/01/22 01:52:51;;;;;;;10.65;3.55;;;;;;;-1.49;41.40;100964.98;1742303;82;25685;-64
2022/01/22 01:55:20;;;;;;;7.95;3.50;;;;;;;-1.53;41.53;100971.75;1768691;81;26139;-63
2022/01/22 01:57:46;;;;;;;9.73;4.37;;;;;;;-1.61;41.68;100972.88;1733872;81;25829;-63
2022/01/22 02:00:22;;;;;;;20.35;3.90;;;;;;;-1.59;41.90;100972.81;1733901;81;27497;-63
2022/01/22 02:02:52;;;;;;;8.25;3.10;;;;;;;-1.59;41.87;100965.78;1718357;82;26078;-63
2022/01/22 02:05:23;;;;;;;7.83;3.83;;;;;;;-1.62;41.83;100967.67;1734303;81;25852;-62
2022/01/22 02:07:54;;;;;;;10.80;4.50;;;;;;;-1.62;41.94;100966.35;1718493;82;25809;-63
2022/01/22 02:10:27;;;;;;;5.83;3.20;;;;;;;-1.60;41.96;100965.38;1734345;81;26243;-63
2022/01/22 02:23:50;;;;;;;10.20;4.00;;;;;;;-1.52;41.94;100961.60;1725131;81;25767;-64
2022/01/22 02:26:18;;;;;;;11.53;4.03;;;;;;;-1.52;41.94;100961.60;1748291;82;27500;-64
2022/01/22 02:28:51;;;;;;;8.83;3.65;;;;;;;-1.49;42.09;100962.83;1714949;82;25818;-63
2022/01/22 02:31:34;;;;;;;8.25;3.65;;;;;;;-1.48;42.03;100958.80;1701254;83;25960;-63
2022/01/22 02:34:22;;;;;;;7.22;2.95;;;;;;;-1.51;41.84;100960.22;1733364;81;26161;-64
2022/01/22 02:37:00;;;;;;;10.63;3.08;;;;;;;-1.59;41.86;100955.67;1733181;82;25799;-64
2022/01/22 02:39:44;;;;;;;8.85;4.28;;;;;;;-1.69;41.98;100947.23;1734289;81;27512;-64
2022/01/22 02:42:08;;;;;;;;;;;;;;;-1.77;42.30;100957.19;1780077;79;25767;-63
2022/01/22 02:44:46;;;;;;;9.93;3.40;;;;;;;-1.84;42.48;100953.04;1814075;78;25856;-63
2022/01/22 02:47:15;;;;;;;10.72;3.05;;;;;;;-1.91;42.54;100951.91;1814978;79;26319;-63
2022/01/22 02:49:43;;;;;;;9.25;3.60;;;;;;;-1.95;42.75;100956.90;1815065;79;25843;-63
2022/01/22 02:52:12;;;;;;;9.78;3.45;;;;;;;-2.01;42.88;100953.13;1815378;79;27420;-63
2022/01/22 02:54:41;;;;;;;8.43;3.80;;;;;;;-2.03;42.92;100950.14;1814631;78;25707;-63
2022/01/22 02:57:12;;;;;;;8.25;3.17;;;;;;;-2.07;43.01;100953.34;1815067;79;25684;-65
2022/01/22 02:59:42;;;;;;;7.78;4.47;;;;;;;-2.07;43.11;100950.70;1815010;79;26115;-63
2022/01/22 03:02:14;;;;;;;9.13;3.12;;;;;;;-2.09;43.07;100945.92;1814472;78;25697;-63
2022/01/22 03:04:43;;;;;;;10.20;2.87;;;;;;;-2.04;43.11;100942.70;1815121;79;27468;-63
2022/01/22 03:07:11;;;;;;;10.60;3.25;;;;;;;-2.01;42.88;100948.32;1815266;79;25685;-63
2022/01/22 03:09:46;;;;;;;8.45;3.62;;;;;;;-1.97;42.86;100953.91;1815006;79;25745;-63
2022/01/22 03:12:45;;;;;;;4.65;2.33;;;;;;;-1.96;43.02;100956.48;1814520;79;26104;-64
2022/01/22 03:20:08;;;;;;;13.78;3.22;;;;;;;-1.76;43.01;100961.55;1776018;80;25804;-63
2022/01/22 03:27:54;;;;;;;7.40;2.72;;;;;;;-1.67;42.59;100962.99;1773228;80;27347;-64
2022/01/22 03:30:21;;;;;;;8.35;3.10;;;;;;;-1.75;42.66;100954.89;1760094;80;27536;-65
2022/01/22 03:32:52;;;;;;;9.85;3.00;;;;;;;-1.79;42.71;100957.69;1742106;82;25714;-65
2022/01/22 03:37:56;;;;;;;9.58;3.05;;;;;;;-1.83;42.75;100952.98;1742217;82;26085;-63
2022/01/22 03:40:26;;;;;;;6.90;2.80;;;;;;;-1.85;42.90;100960.07;1779673;80;25809;-63
2022/01/22 03:42:55;;;;;;;3.55;2.25;;;;;;;-1.87;43.07;100955.77;1814254;78;28172;-63
2022/01/22 03:45:25;;;;;;;7.70;2.90;;;;;;;-1.87;42.89;100950.50;1778189;80;25874;-64
2022/01/22 03:47:53;;;;;;;5.58;3.10;;;;;;;-1.87;42.94;100949.17;1778340;80;25718;-63
2022/01/22 03:50:21;;;;;;;13.80;2.92;;;;;;;-1.90;43.04;100940.45;1778815;79;26091;-64
2022/01/22 03:52:50;;;;;;;17.07;3.08;;;;;;;-1.91;43.26;100949.27;1778345;80;25740;-63
2022/01/22 03:55:35;;;;;;;8.55;3.17;;;;;;;-1.91;43.39;100948.42;1778080;79;29571;-63
2022/01/22 03:58:11;;;;;;;9.15;3.20;;;;;;;-1.89;43.29;100950.56;1778110;79;25760;-63
2022/01/22 04:00:39;;;;;;;10.28;3.35;;;;;;;-1.93;43.23;100951.09;1778379;79;25731;-63
2022/01/22 04:03:29;;;;;;;8.83;2.70;;;;;;;-1.91;43.36;100947.11;1778338;80;26252;-63
2022/01/22 04:08:40;;;;;;;11.18;3.62;;;;;;;-1.93;43.30;100947.13;1778372;80;27491;-63
2022/01/22 04:11:12;;;;;;;4.87;2.92;;;;;;;-1.93;43.34;100948.92;1778395;80;25722;-63
2022/01/22 04:13:37;;;;;;;7.97;3.17;;;;;;;-1.99;43.39;100952.63;1778034;80;25719;-63
2022/01/22 04:16:06;;;;;;;6.80;3.05;;;;;;;-2.04;43.57;100944.02;1778295;80;26019;-63
2022/01/22 04:27:09;;;;;;;4.87;3.00;;;;;;;-2.17;43.67;100952.79;1778139;80;25660;-63
2022/01/22 04:29:27;;;;;;;6.22;2.80;;;;;;;-2.23;43.72;100960.44;1739816;80;26136;-63
2022/01/22 04:31:54;;;;;;;8.98;2.98;;;;;;;-2.26;43.74;100975.48;1748140;82;25808;-63
2022/01/22 04:34:21;;;;;;;7.85;2.67;;;;;;;-2.28;44.01;100969.40;1784721;80;27486;-63
2022/01/22 04:36:52;;;;;;;7.53;3.42;;;;;;;-2.31;44.28;100976.07;1785623;80;27165;-63
2022/01/22 04:39:21;;;;;;;8.98;3.42;;;;;;;-2.29;44.45;100975.14;1785548;80;25635;-63
2022/01/22 04:41:52;;;;;;;7.60;3.37;;;;;;;-2.25;44.98;100970.62;1802034;78;26246;-63
2022/01/22 04:44:19;;;;;;;5.65;3.00;;;;;;;-2.24;45.26;100977.62;1812532;78;26097;-63
2022/01/22 04:46:59;;;;;;;11.12;2.80;;;;;;;-2.24;45.81;100981.58;1808067;79;27480;-63
2022/01/22 04:57:21;;;;;;;4.87;2.62;;;;;;;-2.22;45.82;100977.98;1808133;79;25724;-64
2022/01/22 04:59:48;;;;;;;6.10;2.85;;;;;;;-2.29;48.13;100982.16;1808325;79;27441;-64
2022/01/22 05:02:16;;;;;;;10.28;3.27;;;;;;;-2.34;48.81;100975.72;1807897;79;25733;-64
2022/01/22 05:04:43;;;;;;;8.38;3.22;;;;;;;-2.40;48.79;100979.41;1807951;79;25773;-64
2022/01/22 05:07:28;;;;;;;9.63;3.85;;;;;;;-2.45;49.55;100976.50;1808025;79;28244;-64
2022/01/22 05:09:57;;;;;;;6.12;3.50;;;;;;;-2.49;49.20;100974.42;1806859;79;25703;-64
2022/01/22 05:12:24;;;;;;;5.85;2.85;;;;;;;-2.50;50.15;100965.27;1808094;79;27459;-64
2022/01/22 05:14:52;;;;;;;9.43;3.67;;;;;;;-2.49;50.51;100970.47;1807850;79;25744;-64
2022/01/22 05:17:22;;;;;;;9.83;3.40;;;;;;;-2.50;50.45;100963.47;1807961;79;25672;-64
2022/01/22 05:20:01;;;;;;;7.10;3.12;;;;;;;-2.52;50.52;100966.16;1807562;79;26135;-63
2022/01/22 05:24:53;;;;;;;9.68;4.75;;;;;;;-2.53;50.14;100961.80;1787415;79;28274;-64
2022/01/22 05:38:35;;;;;;;11.35;4.10;;;;;;;-2.33;48.71;100964.74;1776028;80;27478;-63
2022/01/22 05:41:02;;;;;;;13.15;4.33;;;;;;;-2.32;48.34;100962.05;1781628;79;25711;-64
2022/01/22 05:43:32;;;;;;;12.65;4.33;;;;;;;-2.31;48.03;100970.37;1765117;79;25689;-63
2022/01/22 05:45:59;;;;;;;9.83;3.60;;;;;;;-2.25;47.67;100967.99;1778301;79;26110;-64
2022/01/22 05:48:26;;;;;;;9.08;4.85;;;;;;;-2.17;47.11;100973.00;1778308;79;25787;-63
2022/01/22 05:50:58;;;;;;;8.38;3.60;;;;;;;-2.13;46.99;100978.59;1747666;82;27458;-64
2022/01/22 06:01:18;;;;;;;9.55;3.50;;;;;;;-1.94;45.99;100974.88;1747668;82;25748;-64
2022/01/22 06:03:52;;;;;;;14.87;4.67;;;;;;;-1.94;45.27;100973.56;1746850;82;27115;-64
2022/01/22 06:06:21;;;;;;;9.83;3.40;;;;;;;-1.97;45.34;100973.22;1747450;82;25501;-64
2022/01/22 06:08:52;;;;;;;16.10;4.72;;;;;;;-1.99;45.15;100971.55;1747338;80;25799;-64
2022/01/22 06:11:22;;;;;;;25.52;6.37;;;;;;;-2.06;45.11;100974.37;1747302;81;26082;-62
2022/01/22 06:13:46;;;;;;;9.63;4.20;;;;;;;-2.12;45.10;100974.58;1746641;81;25751;-64
2022/01/22 06:16:20;;;;;;;12.65;4.72;;;;;;;-2.24;45.09;100978.47;1747410;81;27313;-64
2022/01/22 06:19:06;;;;;;;16.45;5.67;;;;;;;-2.31;45.35;100976.07;1747292;80;25887;-64
2022/01/22 06:21:33;;;;;;;12.90;5.33;;;;;;;-2.31;45.48;100978.27;1747492;82;25614;-63
2022/01/22 06:24:03;;;;;;;20.50;5.40;;;;;;;-2.28;45.60;100990.48;1747145;80;26114;-63
2022/01/22 06:26:33;;;;;;;15.50;4.95;;;;;;;-2.29;45.53;100982.16;1747544;82;25791;-63
2022/01/22 06:29:06;;;;;;;19.52;5.67;;;;;;;-2.27;45.59;100987.78;1747160;80;27467;-63
2022/01/22 06:31:33;;;;;;;13.80;4.25;;;;;;;-2.24;45.55;100989.02;1805352;79;25749;-63
2022/01/22 06:34:00;;;;;;;15.15;4.45;;;;;;;-2.09;45.54;100996.89;1805398;79;25697;-64
2022/01/22 06:36:28;;;;;;;14.68;4.50;;;;;;;-2.03;45.52;101014.73;1805535;79;26086;-63
2022/01/22 06:39:09;;;;;;;12.37;4.70;;;;;;;-2.02;45.40;101001.52;1805703;79;25936;-64
2022/01/22 06:41:45;;;;;;;17.60;5.12;;;;;;;-1.96;45.33;101007.02;1793722;79;28184;-64
2022/01/22 06:44:34;;;;;;;28.42;5.42;;;;;;;-1.86;45.50;101012.87;1746225;81;25488;-64
2022/01/22 06:47:12;;;;;;;24.65;5.60;;;;;;;-1.75;45.33;101017.34;1747460;79;25872;-62
2022/01/22 06:49:43;;;;;;;15.05;6.47;;;;;;;-1.65;45.18;101014.78;1786579;79;26155;-63
2022/01/22 06:52:29;;;;;;;20.30;5.20;;;;;;;-1.55;45.21;101010.07;1764531;80;25643;-63
2022/01/22 06:54:59;;;;;;;16.80;6.05;;;;;;;-1.42;45.19;101014.46;1766652;80;28357;-65
2022/01/22 06:57:26;;;;;;;18.15;6.53;;;;;;;-1.29;45.18;101004.34;1743654;82;25840;-64
2022/01/22 06:59:53;;;;;;;24.70;9.25;;;;;;;-1.24;44.63;101009.45;1766836;80;25727;-65
2022/01/22 07:02:23;;;;;;;24.27;7.40;;;;;;;-1.23;44.14;101002.79;1804738;79;26182;-62
2022/01/22 07:04:52;;;;;;;24.98;7.45;;;;;;;-1.19;44.17;101010.14;1766001;80;25712;-62
2022/01/22 07:07:32;;;;;;;24.87;8.73;;;;;;;-1.15;44.22;100998.09;1736508;79;27490;-63
2022/01/22 07:09:59;;;;;;;33.45;8.65;;;;;;;-1.06;44.48;101006.16;1765740;81;26557;-62
2022/01/22 07:12:27;;;;;;;16.12;7.33;;;;;;;-1.01;44.51;101001.55;1803081;79;25704;-63
2022/01/22 07:14:53;;;;;;;21.50;7.83;;;;;;;-0.98;44.10;100998.81;1782388;79;26050;-62
2022/01/22 07:17:20;;;;;;;23.22;8.10;;;;;;;-1.00;43.59;101006.39;1765838;81;25419;-62
2022/01/22 07:19:53;;;;;;;24.00;6.78;;;;;;;-1.02;44.01;101001.14;1802897;79;27515;-65
2022/01/22 07:22:37;;;;;;;18.70;6.65;;;;;;;-1.06;43.64;101006.16;1765674;81;25877;-63
2022/01/22 07:25:14;;;;;;;18.87;7.00;;;;;;;-1.08;43.79;101007.98;1802690;77;25688;-64
2022/01/22 07:27:41;;;;;;;16.77;6.75;;;;;;;-1.11;43.59;101013.36;1769444;79;26817;-66
2022/01/22 07:30:12;;;;;;;16.52;6.40;;;;;;;-1.14;43.42;101013.02;1792118;80;26136;-64
2022/01/22 07:32:43;;;;;;;23.38;7.45;;;;;;;-1.09;43.82;101018.61;1770198;80;26840;-63
2022/01/22 07:35:14;;;;;;;24.92;8.13;;;;;;;-1.00;43.51;101012.52;1792182;80;25952;-64
2022/01/22 07:37:42;;;;;;;34.73;8.85;;;;;;;-0.93;43.58;101021.09;1791927;79;25796;-64
2022/01/22 07:40:12;;;;;;;20.70;7.95;;;;;;;-0.86;43.82;101024.38;1784249;79;28277;-65
2022/01/22 07:42:47;;;;;;;25.25;8.75;;;;;;;-0.75;43.19;101020.85;1733899;80;25721;-65
2022/01/22 07:45:34;;;;;;;19.95;8.33;;;;;;;-0.70;43.18;101024.64;1742970;82;27556;-62
2022/01/22 07:48:03;;;;;;;17.85;6.65;;;;;;;-0.66;43.12;101026.27;1704873;82;25870;-62
2022/01/22 07:50:34;;;;;;;17.30;7.03;;;;;;;-0.66;42.30;101023.15;1736829;81;25738;-63
2022/01/22 07:53:02;;;;;;;21.12;6.92;;;;;;;-0.65;42.66;101027.52;1706300;83;26138;-63
2022/01/22 07:55:31;;;;;;;17.30;6.78;;;;;;;-0.68;42.25;101025.02;1738755;82;25810;-64
2022/01/22 07:57:59;;;;;;;19.07;7.12;;;;;;;-0.64;42.47;101020.47;1738886;82;27556;-63
2022/01/22 08:00:26;;;;;;;16.57;6.97;;;;;;;-0.72;41.89;101030.00;1738817;82;25834;-62
2022/01/22 08:02:53;;;;;;;15.32;6.30;;;;;;;-0.74;42.10;101024.38;1705635;84;25807;-63
2022/01/22 08:05:27;;;;;;;11.65;6.55;;;;;;;-0.71;42.07;101022.47;1734794;82;26136;-63
2022/01/22 08:08:13;;;;;;;19.15;7.55;;;;;;;-0.67;41.99;101029.34;1705500;83;25944;-63
2022/01/22 08:10:58;;;;;;;19.20;7.72;;;;;;;-0.67;42.08;101021.90;1739239;82;26908;-64
2022/01/22 08:13:25;;;;;;;18.55;7.45;;;;;;;-0.66;42.21;101019.19;1738995;82;25774;-63
2022/01/22 08:15:55;;;;;;;15.98;7.20;;;;;;;-0.59;42.46;101020.30;1738804;82;25955;-63
2022/01/22 08:18:24;;;;;;;20.62;8.00;;;;;;;-0.53;42.44;101022.22;1738636;82;26095;-64
2022/01/22 08:20:52;;;;;;;20.62;7.47;;;;;;;-0.55;42.61;101028.49;1739005;82;25769;-64
2022/01/22 08:23:37;;;;;;;21.02;8.43;;;;;;;-0.57;42.64;101020.63;1706704;83;27505;-63
2022/01/22 08:26:16;;;;;;;19.57;7.53;;;;;;;-0.52;42.78;101033.67;1746757;81;25887;-63
2022/01/22 08:28:53;;;;;;;16.07;7.35;;;;;;;-0.41;42.80;101030.61;1733055;81;25838;-63
2022/01/22 08:36:50;;;;;;;12.78;6.15;;;;;;;0.26;42.67;101040.75;1759386;81;27466;-63
2022/01/22 08:39:19;;;;;;;18.90;7.42;;;;;;;0.49;41.79;101029.20;1759198;81;25771;-63
2022/01/22 08:41:47;;;;;;;19.12;6.95;;;;;;;0.71;41.60;101030.91;1745597;81;25746;-62
2022/01/22 08:44:15;;;;;;;17.50;6.60;;;;;;;0.91;40.78;101024.73;1749168;82;26804;-63
2022/01/22 08:46:43;;;;;;;22.17;6.35;;;;;;;1.01;41.22;101019.44;1784480;80;25742;-64
2022/01/22 08:49:12;;;;;;;19.57;7.25;;;;;;;1.32;40.75;101031.76;1760897;80;27460;-64
2022/01/22 08:51:41;;;;;;;16.52;5.70;;;;;;;1.40;40.62;101019.89;1781389;78;25830;-65
2022/01/22 08:54:10;;;;;;;10.95;4.62;;;;;;;1.52;41.38;101018.93;1784894;80;25624;-64
2022/01/22 08:56:40;;;;;;;17.45;5.33;;;;;;;1.51;41.23;101016.73;1784910;80;26800;-64
2022/01/22 08:59:15;;;;;;;15.23;5.62;;;;;;;1.44;41.72;101019.28;1779158;80;25930;-64
2022/01/22 09:01:48;;;;;;;17.85;5.05;;;;;;;1.38;42.24;101022.22;1784662;80;29425;-65
2022/01/22 09:04:21;;;;;;;12.73;4.15;;;;;;;1.35;42.71;101025.84;1777997;80;25844;-63
2022/01/22 09:07:08;;;;;;;14.58;4.15;;;;;;;1.23;43.08;101027.75;1784983;80;25705;-63
2022/01/22 09:09:53;;;;;;;12.98;4.92;;;;;;;1.05;43.43;101024.13;1783915;80;26118;-63
2022/01/22 09:12:36;;;;;;;15.13;3.65;;;;;;;0.87;44.10;101020.05;1756072;81;25917;-63
2022/01/22 09:15:07;;;;;;;8.93;3.30;;;;;;;0.85;44.38;101025.87;1773906;78;28197;-64
2022/01/22 09:17:35;;;;;;;10.78;3.00;;;;;;;0.80;44.54;101021.25;1769096;79;25738;-64
2022/01/22 09:20:08;;;;;;;12.15;3.30;;;;;;;0.85;44.93;101023.22;1726773;81;25867;-63
2022/01/22 09:22:32;;;;;;;11.48;3.35;;;;;;;0.83;44.43;101021.13;1750846;81;26139;-62
2022/01/22 09:24:58;;;;;;;9.30;4.08;;;;;;;0.82;44.54;101019.41;1755315;79;25847;-63
2022/01/22 09:27:29;;;;;;;14.63;3.83;;;;;;;0.89;44.55;101014.23;1749878;80;29574;-63
2022/01/22 09:29:58;;;;;;;13.55;3.60;;;;;;;0.98;44.67;101010.32;1805008;78;25859;-65
2022/01/22 09:32:27;;;;;;;11.65;5.15;;;;;;;1.02;44.61;101015.86;1776716;78;26342;-63
2022/01/22 09:35:02;;;;;;;10.90;4.80;;;;;;;1.06;44.77;101019.23;1772288;80;26761;-63
2022/01/22 09:37:31;;;;;;;7.60;3.70;;;;;;;1.18;44.42;101012.51;1774334;78;25775;-63
2022/01/22 09:40:19;;;;;;;10.15;4.58;;;;;;;1.08;42.97;101016.90;1736884;78;27513;-66
2022/01/22 09:43:00;;;;;;;19.57;3.27;;;;;;;0.91;42.33;101015.02;1740647;80;25943;-64
2022/01/22 09:45:36;;;;;;;12.33;3.98;;;;;;;0.90;42.32;101025.67;1772128;78;25809;-64
2022/01/22 09:48:04;;;;;;;12.93;3.67;;;;;;;0.91;41.81;101010.17;1751326;80;26253;-62
2022/01/22 09:50:35;;;;;;;6.92;3.50;;;;;;;1.02;41.94;101007.06;1754598;80;25827;-65
2022/01/22 09:53:04;;;;;;;11.73;3.47;;;;;;;1.21;41.81;101004.43;1759984;80;27508;-65
2022/01/22 09:55:47;;;;;;;7.40;3.12;;;;;;;1.33;41.21;100996.37;1763260;80;25797;-65
2022/01/22 09:58:18;;;;;;;7.55;2.95;;;;;;;1.51;40.81;101007.45;1750141;80;25857;-65
2022/01/22 10:01:34;;;;;;;23.47;8.73;;;;;;;1.44;40.68;100995.42;1760932;80;26061;-65
2022/01/22 10:04:08;;;;;;;11.78;3.92;;;;;;;1.29;40.67;101016.86;1735325;81;25973;-64
2022/01/22 10:09:37;;;;;;;6.60;3.20;;;;;;;0.82;40.39;101018.08;1636541;85;25608;-64
2022/01/22 10:12:22;;;;;;;6.85;3.67;;;;;;;0.62;40.93;101018.47;1730236;82;25708;-64
2022/01/22 10:15:19;;;;;;;21.42;3.87;;;;;;;0.51;41.32;101020.71;1710162;83;26126;-63
2022/01/22 10:17:57;;;;;;;8.48;3.50;;;;;;;0.42;41.42;101028.59;1733894;82;26384;-64
2022/01/22 10:20:38;;;;;;;9.58;2.85;;;;;;;0.46;41.72;101018.27;1710329;83;27468;-64
2022/01/22 10:23:20;;;;;;;22.22;3.30;;;;;;;0.46;41.33;101016.94;1710614;83;25797;-64
2022/01/22 10:25:51;;;;;;;8.83;3.25;;;;;;;0.63;41.59;101019.32;1709552;83;25807;-64
2022/01/22 10:28:22;;;;;;;8.48;3.52;;;;;;;0.79;41.25;101014.23;1709288;82;26100;-64
2022/01/22 10:31:00;;;;;;;10.75;3.42;;;;;;;1.29;41.24;101016.02;1727066;82;26253;-64
2022/01/22 10:34:05;;;;;;;9.98;3.80;;;;;;;1.71;39.10;101007.82;1634125;86;27386;-64
2022/01/22 10:37:02;;;;;;;9.83;2.92;;;;;;;1.86;38.62;101010.21;1623561;87;25536;-64
2022/01/22 10:39:45;;;;;;;;;;;;;;;1.86;37.51;101015.52;1739137;81;25731;-63
2022/01/22 10:42:25;;;;;;;9.35;3.12;;;;;;;1.62;38.10;101006.09;1769767;79;26105;-65
2022/01/22 10:44:59;;;;;;;9.03;3.47;;;;;;;1.59;38.71;101000.92;1739060;82;25869;-65
2022/01/22 10:47:26;;;;;;;5.00;2.65;;;;;;;1.42;38.75;101008.36;1776177;80;27488;-64
2022/01/22 10:49:53;;;;;;;3.67;2.00;;;;;;;1.29;39.04;101025.30;1738673;80;25813;-63
2022/01/22 10:52:20;;;;;;;8.80;2.40;;;;;;;1.12;39.24;101012.80;1775833;80;25754;-64
2022/01/22 10:54:54;;;;;;;15.88;7.50;;;;;;;0.93;38.73;101010.52;1775988;80;45175;-64
2022/01/22 10:57:28;;;;;;;8.93;3.07;;;;;;;1.05;38.64;101014.86;1774880;80;25786;-65
2022/01/22 10:59:56;;;;;;;9.10;2.65;;;;;;;1.05;38.64;101014.86;1775832;80;28199;-63
2022/01/22 11:02:36;;;;;;;5.28;2.45;;;;;;;1.12;38.63;101006.17;1738595;82;25782;-63
2022/01/22 11:05:06;;;;;;;6.33;2.62;;;;;;;1.08;38.74;100998.83;1711275;82;25747;-64
2022/01/22 11:07:34;;;;;;;8.00;2.62;;;;;;;1.07;39.06;101006.37;1738639;81;26086;-64
2022/01/22 11:10:02;;;;;;;10.38;3.55;;;;;;;1.18;39.66;101005.88;1776150;80;26216;-64
2022/01/22 11:12:33;;;;;;;11.70;3.92;;;;;;;1.77;38.88;100997.39;1738715;81;28165;-64
2022/01/22 11:15:00;;;;;;;4.58;2.40;;;;;;;1.66;38.83;100993.09;1774870;80;25859;-64
2022/01/22 11:17:31;;;;;;;7.17;2.42;;;;;;;2.61;38.22;100979.98;1731889;82;25809;-64
2022/01/22 11:20:01;;;;;;;10.75;2.85;;;;;;;3.87;37.30;100977.56;1789301;79;26113;-64
2022/01/22 11:22:32;;;;;;;6.33;2.30;;;;;;;5.13;35.34;100968.80;1785248;79;25753;-65
2022/01/22 11:24:59;;;;;;;5.67;2.10;;;;;;;6.36;35.91;100958.63;1737611;82;28133;-65
2022/01/22 11:27:32;;;;;;;7.20;2.22;;;;;;;7.47;32.53;100971.88;1700727;83;26512;-65
2022/01/22 11:30:06;;;;;;;10.48;3.02;;;;;;;8.15;31.89;100957.53;1735892;81;25714;-65
2022/01/22 11:32:56;;;;;;;4.33;2.08;;;;;;;8.75;28.07;100955.63;1714365;82;26207;-65
2022/01/22 11:36:02;;;;;;;6.20;3.40;;;;;;;7.92;27.13;100960.59;1696903;83;25820;-66
2022/01/22 11:38:36;;;;;;;8.28;3.35;;;;;;;7.41;29.75;100961.63;1692765;83;28776;-65
2022/01/22 11:41:20;;;;;;;6.78;2.98;;;;;;;6.40;28.60;100967.30;1690238;83;25740;-64
2022/01/22 11:44:14;;;;;;;3.60;2.20;;;;;;;5.61;30.16;100958.60;1752764;81;25810;-65
2022/01/22 11:46:44;;;;;;;5.70;1.80;;;;;;;5.21;31.14;100954.50;1765776;80;26183;-65
2022/01/22 11:49:29;;;;;;;5.05;2.42;;;;;;;4.73;31.77;100949.92;1695933;83;25917;-65
2022/01/22 11:52:14;;;;;;;4.55;1.92;;;;;;;4.30;32.55;100951.58;1736588;81;27467;-65
2022/01/22 11:55:00;;;;;;;5.22;2.00;;;;;;;4.01;33.04;100951.48;1733425;81;25788;-64
2022/01/22 11:57:34;;;;;;;9.43;3.33;;;;;;;3.74;33.37;100955.27;1740540;81;25754;-64
2022/01/22 12:00:28;;;;;;;3.40;1.82;;;;;;;3.44;34.21;100955.59;1713889;82;26113;-64
2022/01/22 12:03:15;;;;;;;7.12;2.83;;;;;;;3.26;34.83;100955.28;1733463;81;25779;-64
2022/01/22 12:06:02;;;;;;;7.28;2.77;;;;;;;2.99;35.38;100953.19;1765435;80;27408;-65
2022/01/22 12:08:34;;;;;;;6.25;2.65;;;;;;;2.86;35.70;100958.75;1741750;81;26362;-65
2022/01/22 12:16:48;;;;;;;14.07;4.40;;;;;;;2.72;36.36;100956.83;1749654;80;25718;-63
2022/01/22 12:19:49;;;;;;;10.98;4.28;;;;;;;2.61;36.21;100954.75;1758168;80;27530;-64
2022/01/22 12:22:37;;;;;;;8.43;3.43;;;;;;;2.55;36.45;100961.23;1776826;80;26038;-64
2022/01/22 12:25:16;;;;;;;8.13;3.80;;;;;;;2.59;36.33;100964.13;1746651;80;26341;-63
2022/01/22 12:27:52;;;;;;;9.90;4.40;;;;;;;2.41;36.37;100955.31;1698054;80;26294;-64
2022/01/22 12:30:47;;;;;;;9.75;3.50;;;;;;;2.42;36.88;100962.34;1744069;82;25899;-63
2022/01/22 12:33:34;;;;;;;11.08;4.25;;;;;;;2.28;36.75;100963.05;1744743;80;27461;-63
2022/01/22 12:36:05;;;;;;;9.70;3.20;;;;;;;2.32;36.87;100961.09;1761917;80;25783;-65
2022/01/22 12:38:52;;;;;;;9.08;3.42;;;;;;;2.32;36.98;100969.05;1744980;82;25744;-65
2022/01/22 12:44:11;;;;;;;8.88;3.05;;;;;;;2.52;36.69;100958.73;1762924;80;25853;-65
2022/01/22 12:46:39;;;;;;;5.72;3.10;;;;;;;2.79;36.91;100961.75;1755687;80;27561;-64
2022/01/22 12:49:09;;;;;;;6.65;3.00;;;;;;;3.08;36.61;100955.80;1741540;79;25757;-64
2022/01/22 12:51:40;;;;;;;9.78;3.20;;;;;;;3.21;36.21;100953.33;1765607;79;25717;-64
2022/01/22 12:54:07;;;;;;;11.20;3.95;;;;;;;3.30;36.20;100955.48;1771600;79;25768;-65
2022/01/22 12:56:51;;;;;;;4.28;2.75;;;;;;;3.32;35.56;100961.58;1744692;80;27418;-64
2022/01/22 12:59:08;;;;;;;7.08;3.22;;;;;;;3.34;34.84;100958.38;1748268;79;27479;-65
2022/01/22 13:01:39;;;;;;;10.72;4.33;;;;;;;3.26;34.50;100950.81;1746914;80;25813;-64
2022/01/22 13:04:08;;;;;;;10.30;3.40;;;;;;;3.27;34.75;100953.86;1736274;81;25776;-65
2022/01/22 13:06:42;;;;;;;8.03;3.35;;;;;;;3.21;34.65;100955.53;1772153;79;26164;-64
2022/01/22 13:09:41;;;;;;;9.25;3.55;;;;;;;3.20;34.82;100962.24;1738860;82;25708;-63
2022/01/22 13:12:11;;;;;;;10.60;4.47;;;;;;;3.27;34.67;100969.81;1760640;79;27396;-63
2022/01/22 13:14:38;;;;;;;6.72;3.25;;;;;;;3.06;34.38;100965.65;1768045;80;26063;-63
2022/01/22 13:17:11;;;;;;;9.75;3.45;;;;;;;2.80;34.09;100975.87;1749583;81;25832;-63
2022/01/22 13:19:39;;;;;;;10.45;4.70;;;;;;;2.64;34.62;100966.55;1754185;81;26096;-63
2022/01/22 13:22:07;;;;;;;13.32;6.00;;;;;;;2.52;34.90;100967.17;1754025;81;25707;-62
2022/01/22 13:24:36;;;;;;;14.68;3.85;;;;;;;2.47;35.29;100966.93;1752460;80;27456;-62
2022/01/22 13:27:14;;;;;;;12.33;4.40;;;;;;;2.52;35.62;100968.50;1743443;82;25746;-62